sensor_id;sensor_type;location;lat;lon;timestamp;temperature;humidity
10541;DHT22;5318;50.844;4.272;2022-07-29T00:00:12;21.10;94.20
10541;DHT22;5318;50.844;4.272;2022-07-29T00:02:38;21.20;94.40
10541;DHT22;5318;50.844;4.272;2022-07-29T00:05:05;21.20;94.20
10541;DHT22;5318;50.844;4.272;2022-07-29T00:07:31;21.00;94.70
10541;DHT22;5318;50.844;4.272;2022-07-29T00:09:58;21.10;94.60
10541;DHT22;5318;50.844;4.272;2022-07-29T00:12:25;21.20;94.60
10541;DHT22;5318;50.844;4.272;2022-07-29T00:14:52;21.20;94.60
10541;DHT22;5318;50.844;4.272;2022-07-29T00:17:18;21.10;95.00
10541;DHT22;5318;50.844;4.272;2022-07-29T00:19:44;21.10;94.90
10541;DHT22;5318;50.844;4.272;2022-07-29T00:22:11;21.10;95.20
10541;DHT22;5318;50.844;4.272;2022-07-29T00:24:37;21.10;95.30
10541;DHT22;5318;50.844;4.272;2022-07-29T00:27:04;21.00;95.60
10541;DHT22;5318;50.844;4.272;2022-07-29T00:29:30;20.80;96.00
10541;DHT22;5318;50.844;4.272;2022-07-29T00:31:57;20.90;96.20
10541;DHT22;5318;50.844;4.272;2022-07-29T00:34:23;20.90;96.20
10541;DHT22;5318;50.844;4.272;2022-07-29T00:36:50;20.80;96.60
10541;DHT22;5318;50.844;4.272;2022-07-29T00:39:17;20.90;96.70
10541;DHT22;5318;50.844;4.272;2022-07-29T00:41:43;20.90;96.70
10541;DHT22;5318;50.844;4.272;2022-07-29T00:44:10;20.80;97.10
10541;DHT22;5318;50.844;4.272;2022-07-29T00:46:37;20.70;97.10
10541;DHT22;5318;50.844;4.272;2022-07-29T00:49:03;20.80;97.50
10541;DHT22;5318;50.844;4.272;2022-07-29T00:51:30;20.70;97.70
10541;DHT22;5318;50.844;4.272;2022-07-29T00:53:57;20.60;98.30
10541;DHT22;5318;50.844;4.272;2022-07-29T00:56:23;20.60;98.50
10541;DHT22;5318;50.844;4.272;2022-07-29T00:58:50;20.60;98.80
10541;DHT22;5318;50.844;4.272;2022-07-29T01:01:16;20.40;99.20
10541;DHT22;5318;50.844;4.272;2022-07-29T01:03:43;20.50;99.40
10541;DHT22;5318;50.844;4.272;2022-07-29T01:06:13;20.50;99.80
10541;DHT22;5318;50.844;4.272;2022-07-29T01:08:36;20.20;99.90
10541;DHT22;5318;50.844;4.272;2022-07-29T01:11:03;20.20;99.90
10541;DHT22;5318;50.844;4.272;2022-07-29T01:13:30;20.20;99.90
10541;DHT22;5318;50.844;4.272;2022-07-29T01:16:03;20.40;99.90
10541;DHT22;5318;50.844;4.272;2022-07-29T01:18:34;20.40;99.90
10541;DHT22;5318;50.844;4.272;2022-07-29T01:21:11;20.50;99.90
10541;DHT22;5318;50.844;4.272;2022-07-29T01:26:23;20.50;99.90
10541;DHT22;5318;50.844;4.272;2022-07-29T01:28:51;20.50;99.90
10541;DHT22;5318;50.844;4.272;2022-07-29T01:31:25;20.50;99.90
10541;DHT22;5318;50.844;4.272;2022-07-29T01:33:41;20.30;99.90
10541;DHT22;5318;50.844;4.272;2022-07-29T01:36:19;20.10;99.90
10541;DHT22;5318;50.844;4.272;2022-07-29T01:38:33;20.00;99.90
10541;DHT22;5318;50.844;4.272;2022-07-29T01:41:10;20.30;99.90
10541;DHT22;5318;50.844;4.272;2022-07-29T01:43:49;20.20;99.90
10541;DHT22;5318;50.844;4.272;2022-07-29T01:46:14;20.20;99.90
10541;DHT22;5318;50.844;4.272;2022-07-29T01:48:52;20.00;99.90
10541;DHT22;5318;50.844;4.272;2022-07-29T01:51:18;20.10;99.90
10541;DHT22;5318;50.844;4.272;2022-07-29T01:54:04;20.10;99.90
10541;DHT22;5318;50.844;4.272;2022-07-29T01:56:28;20.10;99.90
10541;DHT22;5318;50.844;4.272;2022-07-29T01:58:54;20.10;99.90
10541;DHT22;5318;50.844;4.272;2022-07-29T02:01:21;20.00;99.90
10541;DHT22;5318;50.844;4.272;2022-07-29T02:03:47;20.00;99.90
10541;DHT22;5318;50.844;4.272;2022-07-29T02:06:15;19.90;99.90
10541;DHT22;5318;50.844;4.272;2022-07-29T02:08:40;19.80;99.90
10541;DHT22;5318;50.844;4.272;2022-07-29T02:11:07;19.80;99.90
10541;DHT22;5318;50.844;4.272;2022-07-29T02:13:34;19.80;99.90
10541;DHT22;5318;50.844;4.272;2022-07-29T02:16:00;19.70;99.90
10541;DHT22;5318;50.844;4.272;2022-07-29T02:18:27;19.70;99.90
10541;DHT22;5318;50.844;4.272;2022-07-29T02:20:53;19.60;99.90
10541;DHT22;5318;50.844;4.272;2022-07-29T02:23:23;19.30;99.90
10541;DHT22;5318;50.844;4.272;2022-07-29T02:25:50;19.40;99.90
10541;DHT22;5318;50.844;4.272;2022-07-29T02:28:16;19.50;99.90
10541;DHT22;5318;50.844;4.272;2022-07-29T02:30:42;19.50;99.90
10541;DHT22;5318;50.844;4.272;2022-07-29T02:33:10;19.60;99.90
10541;DHT22;5318;50.844;4.272;2022-07-29T02:35:36;19.60;99.90
10541;DHT22;5318;50.844;4.272;2022-07-29T02:38:03;19.60;99.90
10541;DHT22;5318;50.844;4.272;2022-07-29T02:40:29;19.60;99.90
10541;DHT22;5318;50.844;4.272;2022-07-29T02:42:56;19.60;99.90
10541;DHT22;5318;50.844;4.272;2022-07-29T02:45:22;19.60;99.90
10541;DHT22;5318;50.844;4.272;2022-07-29T02:47:49;19.60;99.90
10541;DHT22;5318;50.844;4.272;2022-07-29T02:50:17;19.70;99.90
10541;DHT22;5318;50.844;4.272;2022-07-29T02:55:31;19.60;99.90
10541;DHT22;5318;50.844;4.272;2022-07-29T02:58:13;19.50;99.90
10541;DHT22;5318;50.844;4.272;2022-07-29T03:00:39;19.50;99.90
10541;DHT22;5318;50.844;4.272;2022-07-29T03:03:11;19.30;99.90
10541;DHT22;5318;50.844;4.272;2022-07-29T03:05:35;19.30;99.90
10541;DHT22;5318;50.844;4.272;2022-07-29T03:08:03;19.30;99.90
10541;DHT22;5318;50.844;4.272;2022-07-29T03:10:28;19.30;99.90
10541;DHT22;5318;50.844;4.272;2022-07-29T03:12:56;19.20;99.90
10541;DHT22;5318;50.844;4.272;2022-07-29T03:15:22;19.20;99.90
10541;DHT22;5318;50.844;4.272;2022-07-29T03:17:49;19.20;99.90
10541;DHT22;5318;50.844;4.272;2022-07-29T03:20:15;19.10;99.90
10541;DHT22;5318;50.844;4.272;2022-07-29T03:22:42;19.10;99.90
10541;DHT22;5318;50.844;4.272;2022-07-29T03:25:11;19.10;99.90
10541;DHT22;5318;50.844;4.272;2022-07-29T03:27:38;18.80;99.90
10541;DHT22;5318;50.844;4.272;2022-07-29T03:30:05;18.90;99.90
10541;DHT22;5318;50.844;4.272;2022-07-29T03:32:32;19.00;99.90
10541;DHT22;5318;50.844;4.272;2022-07-29T03:34:58;19.00;99.90
10541;DHT22;5318;50.844;4.272;2022-07-29T03:37:25;19.00;99.90
10541;DHT22;5318;50.844;4.272;2022-07-29T03:39:52;19.00;99.90
10541;DHT22;5318;50.844;4.272;2022-07-29T03:42:19;19.10;99.90
10541;DHT22;5318;50.844;4.272;2022-07-29T03:44:45;18.70;99.90
10541;DHT22;5318;50.844;4.272;2022-07-29T03:47:11;18.60;99.90
10541;DHT22;5318;50.844;4.272;2022-07-29T03:49:37;18.80;99.90
10541;DHT22;5318;50.844;4.272;2022-07-29T03:52:04;18.90;99.90
10541;DHT22;5318;50.844;4.272;2022-07-29T03:54:31;19.00;99.90
10541;DHT22;5318;50.844;4.272;2022-07-29T03:56:59;19.00;99.90
10541;DHT22;5318;50.844;4.272;2022-07-29T03:59:24;18.90;99.90
10541;DHT22;5318;50.844;4.272;2022-07-29T04:01:51;18.90;99.90
10541;DHT22;5318;50.844;4.272;2022-07-29T04:04:18;18.90;99.90
10541;DHT22;5318;50.844;4.272;2022-07-29T04:06:45;18.90;99.90
10541;DHT22;5318;50.844;4.272;2022-07-29T04:09:11;18.90;99.90
10541;DHT22;5318;50.844;4.272;2022-07-29T04:11:40;18.90;99.90
10541;DHT22;5318;50.844;4.272;2022-07-29T04:14:06;18.80;99.90
10541;DHT22;5318;50.844;4.272;2022-07-29T04:16:33;18.80;99.90
10541;DHT22;5318;50.844;4.272;2022-07-29T04:19:00;18.50;99.90
10541;DHT22;5318;50.844;4.272;2022-07-29T04:21:27;18.50;99.90
10541;DHT22;5318;50.844;4.272;2022-07-29T04:23:53;18.60;99.90
10541;DHT22;5318;50.844;4.272;2022-07-29T04:26:20;18.60;99.90
10541;DHT22;5318;50.844;4.272;2022-07-29T04:28:46;18.60;99.90
10541;DHT22;5318;50.844;4.272;2022-07-29T04:31:13;18.50;99.90
10541;DHT22;5318;50.844;4.272;2022-07-29T04:33:39;18.60;99.90
10541;DHT22;5318;50.844;4.272;2022-07-29T04:36:06;18.40;99.90
10541;DHT22;5318;50.844;4.272;2022-07-29T04:38:33;18.60;99.90
10541;DHT22;5318;50.844;4.272;2022-07-29T04:40:59;18.40;99.90
10541;DHT22;5318;50.844;4.272;2022-07-29T04:43:26;18.70;99.90
10541;DHT22;5318;50.844;4.272;2022-07-29T04:45:52;18.70;99.90
10541;DHT22;5318;50.844;4.272;2022-07-29T04:48:20;18.80;99.90
10541;DHT22;5318;50.844;4.272;2022-07-29T04:50:47;18.80;99.90
10541;DHT22;5318;50.844;4.272;2022-07-29T04:53:14;19.00;99.90
10541;DHT22;5318;50.844;4.272;2022-07-29T04:55:41;18.90;99.90
10541;DHT22;5318;50.844;4.272;2022-07-29T04:58:07;19.00;99.90
10541;DHT22;5318;50.844;4.272;2022-07-29T05:00:34;19.00;99.90
10541;DHT22;5318;50.844;4.272;2022-07-29T05:03:00;19.10;99.90
10541;DHT22;5318;50.844;4.272;2022-07-29T05:05:27;19.10;99.90
10541;DHT22;5318;50.844;4.272;2022-07-29T05:07:54;19.20;99.90
10541;DHT22;5318;50.844;4.272;2022-07-29T05:10:20;19.20;99.90
10541;DHT22;5318;50.844;4.272;2022-07-29T05:12:47;19.30;99.90
10541;DHT22;5318;50.844;4.272;2022-07-29T05:15:13;19.10;99.90
10541;DHT22;5318;50.844;4.272;2022-07-29T05:17:40;19.10;99.90
10541;DHT22;5318;50.844;4.272;2022-07-29T05:20:07;19.50;99.90
10541;DHT22;5318;50.844;4.272;2022-07-29T05:22:34;19.50;99.90
10541;DHT22;5318;50.844;4.272;2022-07-29T05:25:00;19.60;99.90
10541;DHT22;5318;50.844;4.272;2022-07-29T05:27:27;19.70;99.90
10541;DHT22;5318;50.844;4.272;2022-07-29T05:29:53;19.70;99.90
10541;DHT22;5318;50.844;4.272;2022-07-29T05:32:20;19.80;99.90
10541;DHT22;5318;50.844;4.272;2022-07-29T05:34:46;19.60;99.90
10541;DHT22;5318;50.844;4.272;2022-07-29T05:37:13;19.90;99.90
10541;DHT22;5318;50.844;4.272;2022-07-29T05:39:40;19.90;99.90
10541;DHT22;5318;50.844;4.272;2022-07-29T05:42:09;20.00;99.90
10541;DHT22;5318;50.844;4.272;2022-07-29T05:44:38;20.00;99.90
10541;DHT22;5318;50.844;4.272;2022-07-29T05:47:05;20.10;99.90
10541;DHT22;5318;50.844;4.272;2022-07-29T05:49:31;20.20;99.90
10541;DHT22;5318;50.844;4.272;2022-07-29T05:51:58;20.30;99.90
10541;DHT22;5318;50.844;4.272;2022-07-29T05:54:24;20.40;99.90
10541;DHT22;5318;50.844;4.272;2022-07-29T05:56:51;20.50;99.90
10541;DHT22;5318;50.844;4.272;2022-07-29T05:59:17;20.80;99.90
10541;DHT22;5318;50.844;4.272;2022-07-29T06:01:44;21.70;99.90
10541;DHT22;5318;50.844;4.272;2022-07-29T06:04:10;23.00;99.90
10541;DHT22;5318;50.844;4.272;2022-07-29T06:06:37;24.50;99.90
10541;DHT22;5318;50.844;4.272;2022-07-29T06:09:03;26.00;97.30
10541;DHT22;5318;50.844;4.272;2022-07-29T06:11:30;27.40;93.80
10541;DHT22;5318;50.844;4.272;2022-07-29T06:13:57;28.80;91.10
10541;DHT22;5318;50.844;4.272;2022-07-29T06:16:23;29.90;84.90
10541;DHT22;5318;50.844;4.272;2022-07-29T06:18:50;30.50;82.50
10541;DHT22;5318;50.844;4.272;2022-07-29T06:21:16;31.10;79.50
10541;DHT22;5318;50.844;4.272;2022-07-29T06:23:43;30.90;77.40
10541;DHT22;5318;50.844;4.272;2022-07-29T06:26:09;30.30;78.00
10541;DHT22;5318;50.844;4.272;2022-07-29T06:28:36;29.70;78.60
10541;DHT22;5318;50.844;4.272;2022-07-29T06:31:03;28.90;79.90
10541;DHT22;5318;50.844;4.272;2022-07-29T06:33:29;28.60;81.20
10541;DHT22;5318;50.844;4.272;2022-07-29T06:35:56;28.70;82.00
10541;DHT22;5318;50.844;4.272;2022-07-29T06:38:25;29.50;80.90
10541;DHT22;5318;50.844;4.272;2022-07-29T06:40:49;32.30;75.40
10541;DHT22;5318;50.844;4.272;2022-07-29T06:43:16;32.30;75.40
10541;DHT22;5318;50.844;4.272;2022-07-29T06:45:42;33.90;72.20
10541;DHT22;5318;50.844;4.272;2022-07-29T06:48:09;34.80;69.80
10541;DHT22;5318;50.844;4.272;2022-07-29T06:50:36;34.60;67.60
10541;DHT22;5318;50.844;4.272;2022-07-29T06:53:02;33.90;68.60
10541;DHT22;5318;50.844;4.272;2022-07-29T06:55:29;33.20;69.20
10541;DHT22;5318;50.844;4.272;2022-07-29T06:57:55;32.20;70.30
10541;DHT22;5318;50.844;4.272;2022-07-29T07:00:22;31.50;71.60
10541;DHT22;5318;50.844;4.272;2022-07-29T07:02:48;30.80;72.80
10541;DHT22;5318;50.844;4.272;2022-07-29T07:05:15;30.20;73.80
10541;DHT22;5318;50.844;4.272;2022-07-29T07:07:42;29.50;75.90
10541;DHT22;5318;50.844;4.272;2022-07-29T07:10:09;29.40;75.80
10541;DHT22;5318;50.844;4.272;2022-07-29T07:12:35;29.40;76.60
10541;DHT22;5318;50.844;4.272;2022-07-29T07:15:02;29.90;76.00
10541;DHT22;5318;50.844;4.272;2022-07-29T07:17:28;30.30;75.00
10541;DHT22;5318;50.844;4.272;2022-07-29T07:19:55;31.20;74.50
10541;DHT22;5318;50.844;4.272;2022-07-29T07:22:21;32.60;71.90
10541;DHT22;5318;50.844;4.272;2022-07-29T07:24:48;32.90;70.60
10541;DHT22;5318;50.844;4.272;2022-07-29T07:27:14;33.20;70.70
10541;DHT22;5318;50.844;4.272;2022-07-29T07:29:41;34.40;68.50
10541;DHT22;5318;50.844;4.272;2022-07-29T07:32:08;35.40;66.70
10541;DHT22;5318;50.844;4.272;2022-07-29T07:34:34;36.70;64.90
10541;DHT22;5318;50.844;4.272;2022-07-29T07:37:01;37.80;62.70
10541;DHT22;5318;50.844;4.272;2022-07-29T07:39:27;38.20;61.40
10541;DHT22;5318;50.844;4.272;2022-07-29T07:41:54;39.00;60.60
10541;DHT22;5318;50.844;4.272;2022-07-29T07:44:20;40.00;58.30
10541;DHT22;5318;50.844;4.272;2022-07-29T07:46:48;41.20;55.70
10541;DHT22;5318;50.844;4.272;2022-07-29T07:49:14;41.20;55.70
10541;DHT22;5318;50.844;4.272;2022-07-29T07:51:41;41.00;55.20
10541;DHT22;5318;50.844;4.272;2022-07-29T07:54:07;41.20;55.40
10541;DHT22;5318;50.844;4.272;2022-07-29T07:56:34;41.30;54.80
10541;DHT22;5318;50.844;4.272;2022-07-29T07:59:00;41.80;54.10
10541;DHT22;5318;50.844;4.272;2022-07-29T08:01:27;42.50;53.70
10541;DHT22;5318;50.844;4.272;2022-07-29T08:03:53;43.40;52.40
10541;DHT22;5318;50.844;4.272;2022-07-29T08:06:21;44.20;51.30
10541;DHT22;5318;50.844;4.272;2022-07-29T08:08:47;44.10;51.20
10541;DHT22;5318;50.844;4.272;2022-07-29T08:11:14;44.70;50.60
10541;DHT22;5318;50.844;4.272;2022-07-29T08:13:40;44.50;49.80
10541;DHT22;5318;50.844;4.272;2022-07-29T08:16:07;44.30;50.00
10541;DHT22;5318;50.844;4.272;2022-07-29T08:18:33;44.50;49.00
10541;DHT22;5318;50.844;4.272;2022-07-29T08:21:01;44.30;49.40
10541;DHT22;5318;50.844;4.272;2022-07-29T08:23:27;44.30;49.30
10541;DHT22;5318;50.844;4.272;2022-07-29T08:25:54;44.70;49.30
10541;DHT22;5318;50.844;4.272;2022-07-29T08:28:20;45.40;48.80
10541;DHT22;5318;50.844;4.272;2022-07-29T08:30:47;45.60;47.70
10541;DHT22;5318;50.844;4.272;2022-07-29T08:33:13;45.30;47.90
10541;DHT22;5318;50.844;4.272;2022-07-29T08:35:40;45.20;48.00
10541;DHT22;5318;50.844;4.272;2022-07-29T08:38:07;45.30;47.80
10541;DHT22;5318;50.844;4.272;2022-07-29T08:40:34;46.00;47.40
10541;DHT22;5318;50.844;4.272;2022-07-29T08:43:05;46.00;47.50
10541;DHT22;5318;50.844;4.272;2022-07-29T08:45:53;46.60;46.30
10541;DHT22;5318;50.844;4.272;2022-07-29T08:47:59;46.10;46.60
10541;DHT22;5318;50.844;4.272;2022-07-29T08:50:26;46.00;46.50
10541;DHT22;5318;50.844;4.272;2022-07-29T08:52:52;45.60;46.30
10541;DHT22;5318;50.844;4.272;2022-07-29T08:55:19;45.40;46.60
10541;DHT22;5318;50.844;4.272;2022-07-29T08:57:45;44.90;46.50
10541;DHT22;5318;50.844;4.272;2022-07-29T09:00:12;44.60;46.70
10541;DHT22;5318;50.844;4.272;2022-07-29T09:02:41;44.90;47.10
10541;DHT22;5318;50.844;4.272;2022-07-29T09:05:08;45.10;45.70
10541;DHT22;5318;50.844;4.272;2022-07-29T09:07:38;45.00;45.40
10541;DHT22;5318;50.844;4.272;2022-07-29T09:10:06;44.60;46.00
10541;DHT22;5318;50.844;4.272;2022-07-29T09:12:33;44.50;45.70
10541;DHT22;5318;50.844;4.272;2022-07-29T09:14:59;44.60;45.70
10541;DHT22;5318;50.844;4.272;2022-07-29T09:17:42;45.10;45.50
10541;DHT22;5318;50.844;4.272;2022-07-29T09:20:12;45.00;45.10
10541;DHT22;5318;50.844;4.272;2022-07-29T09:22:38;44.80;44.90
10541;DHT22;5318;50.844;4.272;2022-07-29T09:25:05;44.60;44.90
10541;DHT22;5318;50.844;4.272;2022-07-29T09:27:31;44.00;45.00
10541;DHT22;5318;50.844;4.272;2022-07-29T09:30:08;43.60;45.40
10541;DHT22;5318;50.844;4.272;2022-07-29T09:32:34;43.70;45.60
10541;DHT22;5318;50.844;4.272;2022-07-29T09:35:20;43.50;45.60
10541;DHT22;5318;50.844;4.272;2022-07-29T09:37:46;42.90;46.00
10541;DHT22;5318;50.844;4.272;2022-07-29T09:40:13;42.30;46.50
10541;DHT22;5318;50.844;4.272;2022-07-29T09:42:38;41.90;47.20
10541;DHT22;5318;50.844;4.272;2022-07-29T09:45:05;41.30;47.20
10541;DHT22;5318;50.844;4.272;2022-07-29T09:47:45;41.10;47.90
10541;DHT22;5318;50.844;4.272;2022-07-29T09:50:11;41.80;47.60
10541;DHT22;5318;50.844;4.272;2022-07-29T09:52:47;41.80;47.60
10541;DHT22;5318;50.844;4.272;2022-07-29T09:55:13;42.10;47.40
10541;DHT22;5318;50.844;4.272;2022-07-29T09:57:39;41.80;46.90
10541;DHT22;5318;50.844;4.272;2022-07-29T10:00:08;40.30;48.40
10541;DHT22;5318;50.844;4.272;2022-07-29T10:02:34;40.30;48.40
10541;DHT22;5318;50.844;4.272;2022-07-29T10:05:00;40.20;48.20
10541;DHT22;5318;50.844;4.272;2022-07-29T10:07:27;39.50;49.10
10541;DHT22;5318;50.844;4.272;2022-07-29T10:09:54;39.50;49.30
10541;DHT22;5318;50.844;4.272;2022-07-29T10:12:19;39.60;49.60
10541;DHT22;5318;50.844;4.272;2022-07-29T10:14:46;39.80;48.60
10541;DHT22;5318;50.844;4.272;2022-07-29T10:17:13;39.40;49.20
10541;DHT22;5318;50.844;4.272;2022-07-29T10:19:40;38.40;50.50
10541;DHT22;5318;50.844;4.272;2022-07-29T10:22:07;38.40;50.00
10541;DHT22;5318;50.844;4.272;2022-07-29T10:24:33;38.20;50.50
10541;DHT22;5318;50.844;4.272;2022-07-29T10:27:00;38.30;50.50
10541;DHT22;5318;50.844;4.272;2022-07-29T10:29:26;38.40;50.00
10541;DHT22;5318;50.844;4.272;2022-07-29T10:38:02;38.30;49.10
10541;DHT22;5318;50.844;4.272;2022-07-29T10:40:48;37.80;49.70
10541;DHT22;5318;50.844;4.272;2022-07-29T10:43:14;37.60;50.70
10541;DHT22;5318;50.844;4.272;2022-07-29T10:45:35;36.80;51.40
10541;DHT22;5318;50.844;4.272;2022-07-29T10:48:04;36.70;51.30
10541;DHT22;5318;50.844;4.272;2022-07-29T10:50:54;36.50;50.90
10541;DHT22;5318;50.844;4.272;2022-07-29T10:53:19;36.00;52.40
10541;DHT22;5318;50.844;4.272;2022-07-29T10:55:46;35.30;52.70
10541;DHT22;5318;50.844;4.272;2022-07-29T10:58:22;35.10;53.70
10541;DHT22;5318;50.844;4.272;2022-07-29T11:00:49;34.70;53.20
10541;DHT22;5318;50.844;4.272;2022-07-29T11:03:46;34.40;53.80
10541;DHT22;5318;50.844;4.272;2022-07-29T11:06:11;34.00;54.40
10541;DHT22;5318;50.844;4.272;2022-07-29T11:08:38;33.90;54.50
10541;DHT22;5318;50.844;4.272;2022-07-29T11:13:48;33.80;54.00
10541;DHT22;5318;50.844;4.272;2022-07-29T11:16:14;33.80;54.00
10541;DHT22;5318;50.844;4.272;2022-07-29T11:21:41;33.20;53.30
10541;DHT22;5318;50.844;4.272;2022-07-29T11:24:17;32.90;54.20
10541;DHT22;5318;50.844;4.272;2022-07-29T11:26:42;32.70;54.50
10541;DHT22;5318;50.844;4.272;2022-07-29T11:29:21;32.80;54.70
10541;DHT22;5318;50.844;4.272;2022-07-29T11:31:48;32.70;54.90
10541;DHT22;5318;50.844;4.272;2022-07-29T11:39:37;32.30;54.50
10541;DHT22;5318;50.844;4.272;2022-07-29T11:47:21;31.90;56.30
10541;DHT22;5318;50.844;4.272;2022-07-29T11:49:47;32.00;55.50
10541;DHT22;5318;50.844;4.272;2022-07-29T11:52:14;32.10;54.60
10541;DHT22;5318;50.844;4.272;2022-07-29T11:54:41;32.00;54.60
10541;DHT22;5318;50.844;4.272;2022-07-29T11:57:07;31.90;55.10
10541;DHT22;5318;50.844;4.272;2022-07-29T11:59:40;31.70;55.30
10541;DHT22;5318;50.844;4.272;2022-07-29T12:02:06;31.70;55.50
10541;DHT22;5318;50.844;4.272;2022-07-29T12:04:33;31.40;55.10
10541;DHT22;5318;50.844;4.272;2022-07-29T12:06:59;31.30;55.70
10541;DHT22;5318;50.844;4.272;2022-07-29T12:09:26;31.20;56.00
10541;DHT22;5318;50.844;4.272;2022-07-29T12:11:58;31.20;56.40
10541;DHT22;5318;50.844;4.272;2022-07-29T12:14:27;31.10;56.40
10541;DHT22;5318;50.844;4.272;2022-07-29T12:16:54;30.80;56.70
10541;DHT22;5318;50.844;4.272;2022-07-29T12:19:20;30.70;57.30
10541;DHT22;5318;50.844;4.272;2022-07-29T12:21:47;30.80;57.20
10541;DHT22;5318;50.844;4.272;2022-07-29T12:24:13;30.80;57.30
10541;DHT22;5318;50.844;4.272;2022-07-29T12:26:50;31.00;57.50
10541;DHT22;5318;50.844;4.272;2022-07-29T12:29:17;31.00;56.90
10541;DHT22;5318;50.844;4.272;2022-07-29T12:31:43;31.10;57.40
10541;DHT22;5318;50.844;4.272;2022-07-29T12:34:13;31.00;56.80
10541;DHT22;5318;50.844;4.272;2022-07-29T12:36:40;30.90;56.90
10541;DHT22;5318;50.844;4.272;2022-07-29T12:39:06;30.80;57.10
10541;DHT22;5318;50.844;4.272;2022-07-29T12:41:32;30.90;56.70
10541;DHT22;5318;50.844;4.272;2022-07-29T12:43:59;31.00;56.50
10541;DHT22;5318;50.844;4.272;2022-07-29T12:46:25;30.80;57.10
10541;DHT22;5318;50.844;4.272;2022-07-29T12:48:52;30.70;57.30
10541;DHT22;5318;50.844;4.272;2022-07-29T12:51:18;30.70;57.50
10541;DHT22;5318;50.844;4.272;2022-07-29T12:54:01;30.70;57.80
10541;DHT22;5318;50.844;4.272;2022-07-29T12:56:17;30.70;57.70
10541;DHT22;5318;50.844;4.272;2022-07-29T12:58:44;30.90;57.90
10541;DHT22;5318;50.844;4.272;2022-07-29T13:01:12;31.00;57.70
10541;DHT22;5318;50.844;4.272;2022-07-29T13:06:39;31.00;57.90
10541;DHT22;5318;50.844;4.272;2022-07-29T13:11:37;30.90;57.60
10541;DHT22;5318;50.844;4.272;2022-07-29T13:14:02;31.10;57.50
10541;DHT22;5318;50.844;4.272;2022-07-29T13:16:29;31.10;57.90
10541;DHT22;5318;50.844;4.272;2022-07-29T13:19:10;30.80;58.50
10541;DHT22;5318;50.844;4.272;2022-07-29T13:21:37;30.70;58.00
10541;DHT22;5318;50.844;4.272;2022-07-29T13:24:03;30.70;58.20
10541;DHT22;5318;50.844;4.272;2022-07-29T13:26:29;30.80;57.60
10541;DHT22;5318;50.844;4.272;2022-07-29T13:28:56;30.80;57.10
10541;DHT22;5318;50.844;4.272;2022-07-29T13:31:22;30.70;57.30
10541;DHT22;5318;50.844;4.272;2022-07-29T13:33:49;30.70;57.30
10541;DHT22;5318;50.844;4.272;2022-07-29T13:36:15;30.70;58.20
10541;DHT22;5318;50.844;4.272;2022-07-29T13:38:42;30.50;58.10
10541;DHT22;5318;50.844;4.272;2022-07-29T13:41:08;30.60;57.60
10541;DHT22;5318;50.844;4.272;2022-07-29T13:43:35;30.60;57.50
10541;DHT22;5318;50.844;4.272;2022-07-29T13:46:02;30.40;56.90
10541;DHT22;5318;50.844;4.272;2022-07-29T13:48:29;30.40;56.90
10541;DHT22;5318;50.844;4.272;2022-07-29T13:50:56;30.30;56.60
10541;DHT22;5318;50.844;4.272;2022-07-29T13:53:22;30.30;57.40
10541;DHT22;5318;50.844;4.272;2022-07-29T13:55:48;30.30;57.10
10541;DHT22;5318;50.844;4.272;2022-07-29T13:58:15;30.20;58.00
10541;DHT22;5318;50.844;4.272;2022-07-29T14:00:41;30.10;57.20
10541;DHT22;5318;50.844;4.272;2022-07-29T14:03:08;29.90;58.60
10541;DHT22;5318;50.844;4.272;2022-07-29T14:05:36;30.10;58.30
10541;DHT22;5318;50.844;4.272;2022-07-29T14:08:03;30.20;58.40
10541;DHT22;5318;50.844;4.272;2022-07-29T14:10:29;30.30;57.70
10541;DHT22;5318;50.844;4.272;2022-07-29T14:12:56;30.30;57.90
10541;DHT22;5318;50.844;4.272;2022-07-29T14:15:22;30.40;57.60
10541;DHT22;5318;50.844;4.272;2022-07-29T14:17:49;30.40;58.80
10541;DHT22;5318;50.844;4.272;2022-07-29T14:20:15;30.40;57.80
10541;DHT22;5318;50.844;4.272;2022-07-29T14:22:42;30.40;58.10
10541;DHT22;5318;50.844;4.272;2022-07-29T14:25:08;30.10;57.50
10541;DHT22;5318;50.844;4.272;2022-07-29T14:27:35;30.20;56.90
10541;DHT22;5318;50.844;4.272;2022-07-29T14:30:01;30.20;56.70
10541;DHT22;5318;50.844;4.272;2022-07-29T14:32:28;30.10;58.10
10541;DHT22;5318;50.844;4.272;2022-07-29T14:34:55;30.10;58.00
10541;DHT22;5318;50.844;4.272;2022-07-29T14:37:21;30.20;56.70
10541;DHT22;5318;50.844;4.272;2022-07-29T14:39:48;30.30;57.00
10541;DHT22;5318;50.844;4.272;2022-07-29T14:42:14;30.30;56.50
10541;DHT22;5318;50.844;4.272;2022-07-29T14:44:41;30.30;56.90
10541;DHT22;5318;50.844;4.272;2022-07-29T14:47:08;30.40;56.90
10541;DHT22;5318;50.844;4.272;2022-07-29T14:49:35;30.40;56.90
10541;DHT22;5318;50.844;4.272;2022-07-29T14:52:01;30.40;57.20
10541;DHT22;5318;50.844;4.272;2022-07-29T14:54:28;30.60;55.90
10541;DHT22;5318;50.844;4.272;2022-07-29T14:56:54;30.70;56.20
10541;DHT22;5318;50.844;4.272;2022-07-29T14:59:21;30.50;56.10
10541;DHT22;5318;50.844;4.272;2022-07-29T15:01:47;30.30;56.30
10541;DHT22;5318;50.844;4.272;2022-07-29T15:04:15;30.40;56.90
10541;DHT22;5318;50.844;4.272;2022-07-29T15:06:41;30.40;56.90
10541;DHT22;5318;50.844;4.272;2022-07-29T15:09:08;30.60;57.00
10541;DHT22;5318;50.844;4.272;2022-07-29T15:11:34;30.60;57.30
10541;DHT22;5318;50.844;4.272;2022-07-29T15:14:01;30.60;57.50
10541;DHT22;5318;50.844;4.272;2022-07-29T15:16:27;30.50;57.30
10541;DHT22;5318;50.844;4.272;2022-07-29T15:18:54;30.30;57.20
10541;DHT22;5318;50.844;4.272;2022-07-29T15:21:20;30.30;58.30
10541;DHT22;5318;50.844;4.272;2022-07-29T15:23:47;30.20;58.30
10541;DHT22;5318;50.844;4.272;2022-07-29T15:26:14;30.10;58.10
10541;DHT22;5318;50.844;4.272;2022-07-29T15:28:41;30.00;58.00
10541;DHT22;5318;50.844;4.272;2022-07-29T15:31:07;30.00;58.70
10541;DHT22;5318;50.844;4.272;2022-07-29T15:33:34;29.90;58.20
10541;DHT22;5318;50.844;4.272;2022-07-29T15:36:00;29.90;57.90
10541;DHT22;5318;50.844;4.272;2022-07-29T15:38:27;29.80;58.10
10541;DHT22;5318;50.844;4.272;2022-07-29T15:40:54;29.70;58.00
10541;DHT22;5318;50.844;4.272;2022-07-29T15:43:21;29.80;58.10
10541;DHT22;5318;50.844;4.272;2022-07-29T15:45:47;29.90;58.20
10541;DHT22;5318;50.844;4.272;2022-07-29T15:48:14;30.00;58.20
10541;DHT22;5318;50.844;4.272;2022-07-29T15:50:40;29.80;58.50
10541;DHT22;5318;50.844;4.272;2022-07-29T15:53:07;29.70;59.40
10541;DHT22;5318;50.844;4.272;2022-07-29T15:55:34;29.90;58.70
10541;DHT22;5318;50.844;4.272;2022-07-29T15:58:00;30.00;58.10
10541;DHT22;5318;50.844;4.272;2022-07-29T16:00:27;30.10;58.80
10541;DHT22;5318;50.844;4.272;2022-07-29T16:02:54;30.10;58.30
10541;DHT22;5318;50.844;4.272;2022-07-29T16:05:20;30.10;57.30
10541;DHT22;5318;50.844;4.272;2022-07-29T16:07:47;30.10;57.70
10541;DHT22;5318;50.844;4.272;2022-07-29T16:10:14;30.00;57.60
10541;DHT22;5318;50.844;4.272;2022-07-29T16:12:40;29.90;57.70
10541;DHT22;5318;50.844;4.272;2022-07-29T16:15:07;29.80;57.80
10541;DHT22;5318;50.844;4.272;2022-07-29T16:17:34;29.20;58.80